sensor_id;sensor_type;location;lat;lon;timestamp;pressure;altitude;pressure_sealevel;temperature;humidity
53480;BME280;56133;51.012;-1.648;2022-07-06T00:02:20;101873.53;;;13.96;100.00
53480;BME280;56133;51.012;-1.648;2022-07-06T00:04:46;101881.13;;;13.91;100.00
53480;BME280;56133;51.012;-1.648;2022-07-06T00:07:11;101885.91;;;13.99;100.00
53480;BME280;56133;51.012;-1.648;2022-07-06T00:09:39;101877.56;;;14.02;100.00
53480;BME280;56133;51.012;-1.648;2022-07-06T00:12:05;101876.97;;;14.09;100.00
53480;BME280;56133;51.012;-1.648;2022-07-06T00:14:30;101881.53;;;14.09;100.00
53480;BME280;56133;51.012;-1.648;2022-07-06T00:16:56;101882.88;;;14.15;100.00
53480;BME280;56133;51.012;-1.648;2022-07-06T00:19:21;101875.97;;;14.10;100.00
53480;BME280;56133;51.012;-1.648;2022-07-06T00:21:47;101882.38;;;14.09;100.00
53480;BME280;56133;51.012;-1.648;2022-07-06T00:24:12;101886.53;;;14.14;100.00
53480;BME280;56133;51.012;-1.648;2022-07-06T00:26:38;101881.53;;;14.09;100.00
53480;BME280;56133;51.012;-1.648;2022-07-06T00:29:03;101887.03;;;13.96;100.00
53480;BME280;56133;51.012;-1.648;2022-07-06T00:31:29;101889.00;;;13.94;100.00
53480;BME280;56133;51.012;-1.648;2022-07-06T00:33:54;101889.47;;;13.88;100.00
53480;BME280;56133;51.012;-1.648;2022-07-06T00:36:19;101888.50;;;13.89;100.00
53480;BME280;56133;51.012;-1.648;2022-07-06T00:38:45;101885.41;;;13.82;100.00
53480;BME280;56133;51.012;-1.648;2022-07-06T00:41:12;101893.28;;;13.85;100.00
53480;BME280;56133;51.012;-1.648;2022-07-06T00:43:55;101888.13;;;13.82;100.00
53480;BME280;56133;51.012;-1.648;2022-07-06T00:46:32;101887.63;;;13.77;100.00
53480;BME280;56133;51.012;-1.648;2022-07-06T00:48:58;101876.56;;;13.80;100.00
53480;BME280;56133;51.012;-1.648;2022-07-06T00:51:28;101884.31;;;13.85;100.00
53480;BME280;56133;51.012;-1.648;2022-07-06T00:54:00;101878.44;;;13.79;100.00
53480;BME280;56133;51.012;-1.648;2022-07-06T00:56:29;101877.91;;;13.74;100.00
53480;BME280;56133;51.012;-1.648;2022-07-06T00:58:54;101880.00;;;13.71;100.00
53480;BME280;56133;51.012;-1.648;2022-07-06T01:01:20;101878.91;;;13.73;100.00
53480;BME280;56133;51.012;-1.648;2022-07-06T01:03:46;101879.88;;;13.72;100.00
53480;BME280;56133;51.012;-1.648;2022-07-06T01:06:12;101888.84;;;13.73;100.00
53480;BME280;56133;51.012;-1.648;2022-07-06T01:08:38;101884.19;;;13.75;100.00
53480;BME280;56133;51.012;-1.648;2022-07-06T01:11:03;101884.44;;;13.72;100.00
53480;BME280;56133;51.012;-1.648;2022-07-06T01:13:31;101892.78;;;13.69;100.00
53480;BME280;56133;51.012;-1.648;2022-07-06T01:15:57;101893.63;;;13.69;100.00
53480;BME280;56133;51.012;-1.648;2022-07-06T01:18:23;101890.91;;;13.69;100.00
53480;BME280;56133;51.012;-1.648;2022-07-06T01:20:49;101886.13;;;13.61;100.00
53480;BME280;56133;51.012;-1.648;2022-07-06T01:23:14;101882.28;;;13.53;100.00
53480;BME280;56133;51.012;-1.648;2022-07-06T01:25:40;101881.69;;;13.49;100.00
53480;BME280;56133;51.012;-1.648;2022-07-06T01:28:05;101882.97;;;13.32;100.00
53480;BME280;56133;51.012;-1.648;2022-07-06T01:30:30;101878.19;;;13.35;100.00
53480;BME280;56133;51.012;-1.648;2022-07-06T01:32:56;101873.41;;;13.39;100.00
53480;BME280;56133;51.012;-1.648;2022-07-06T01:35:22;101874.59;;;13.35;100.00
53480;BME280;56133;51.012;-1.648;2022-07-06T01:37:49;101870.44;;;13.31;100.00
53480;BME280;56133;51.012;-1.648;2022-07-06T01:40:15;101867.06;;;13.40;100.00
53480;BME280;56133;51.012;-1.648;2022-07-06T01:42:40;101866.78;;;13.32;100.00
53480;BME280;56133;51.012;-1.648;2022-07-06T01:45:06;101876.47;;;13.34;100.00
53480;BME280;56133;51.012;-1.648;2022-07-06T01:47:32;101890.06;;;13.33;100.00
53480;BME280;56133;51.012;-1.648;2022-07-06T01:50:03;101883.13;;;13.17;100.00
53480;BME280;56133;51.012;-1.648;2022-07-06T01:52:30;101885.22;;;13.14;100.00
53480;BME280;56133;51.012;-1.648;2022-07-06T01:54:56;101878.69;;;13.05;100.00
53480;BME280;56133;51.012;-1.648;2022-07-06T01:57:22;101884.66;;;12.97;100.00
53480;BME280;56133;51.012;-1.648;2022-07-06T01:59:47;101882.94;;;12.96;100.00
53480;BME280;56133;51.012;-1.648;2022-07-06T02:02:13;101878.06;;;13.01;100.00
53480;BME280;56133;51.012;-1.648;2022-07-06T02:04:38;101875.00;;;13.06;100.00
53480;BME280;56133;51.012;-1.648;2022-07-06T02:07:04;101873.06;;;13.08;100.00
53480;BME280;56133;51.012;-1.648;2022-07-06T02:09:29;101869.84;;;13.03;100.00
53480;BME280;56133;51.012;-1.648;2022-07-06T02:11:55;101871.69;;;13.02;100.00
53480;BME280;56133;51.012;-1.648;2022-07-06T02:14:20;101862.72;;;13.02;100.00
53480;BME280;56133;51.012;-1.648;2022-07-06T02:16:46;101865.94;;;13.07;100.00
53480;BME280;56133;51.012;-1.648;2022-07-06T02:19:11;101861.16;;;13.11;100.00
53480;BME280;56133;51.012;-1.648;2022-07-06T02:21:36;101863.63;;;13.14;100.00
53480;BME280;56133;51.012;-1.648;2022-07-06T02:24:02;101865.47;;;13.13;100.00
53480;BME280;56133;51.012;-1.648;2022-07-06T02:26:27;101875.31;;;13.14;100.00
53480;BME280;56133;51.012;-1.648;2022-07-06T02:28:53;101877.00;;;13.15;100.00
53480;BME280;56133;51.012;-1.648;2022-07-06T02:31:18;101866.09;;;13.17;100.00
53480;BME280;56133;51.012;-1.648;2022-07-06T02:33:44;101872.69;;;13.13;100.00
53480;BME280;56133;51.012;-1.648;2022-07-06T02:36:09;101870.53;;;13.18;100.00
53480;BME280;56133;51.012;-1.648;2022-07-06T02:38:34;101873.31;;;13.16;100.00
53480;BME280;56133;51.012;-1.648;2022-07-06T02:41:00;101871.38;;;13.18;100.00
53480;BME280;56133;51.012;-1.648;2022-07-06T02:43:25;101869.66;;;13.17;100.00
53480;BME280;56133;51.012;-1.648;2022-07-06T02:45:51;101876.75;;;13.18;100.00
53480;BME280;56133;51.012;-1.648;2022-07-06T02:48:16;101880.34;;;13.19;100.00
53480;BME280;56133;51.012;-1.648;2022-07-06T02:50:42;101873.00;;;13.21;100.00
53480;BME280;56133;51.012;-1.648;2022-07-06T02:53:08;101875.16;;;13.16;100.00
53480;BME280;56133;51.012;-1.648;2022-07-06T02:55:33;101883.78;;;13.21;100.00
53480;BME280;56133;51.012;-1.648;2022-07-06T02:57:59;101878.97;;;13.13;100.00
53480;BME280;56133;51.012;-1.648;2022-07-06T03:00:24;101878.47;;;13.08;100.00
53480;BME280;56133;51.012;-1.648;2022-07-06T03:02:50;101885.94;;;13.04;100.00
53480;BME280;56133;51.012;-1.648;2022-07-06T03:05:15;101886.25;;;13.00;100.00
53480;BME280;56133;51.012;-1.648;2022-07-06T03:07:41;101886.38;;;12.98;100.00
53480;BME280;56133;51.012;-1.648;2022-07-06T03:10:06;101892.88;;;12.96;100.00
53480;BME280;56133;51.012;-1.648;2022-07-06T03:12:32;101889.69;;;13.02;100.00
53480;BME280;56133;51.012;-1.648;2022-07-06T03:14:57;101895.19;;;12.89;100.00
53480;BME280;56133;51.012;-1.648;2022-07-06T03:17:23;101898.31;;;12.83;100.00
53480;BME280;56133;51.012;-1.648;2022-07-06T03:19:48;101897.16;;;12.74;100.00
53480;BME280;56133;51.012;-1.648;2022-07-06T03:22:14;101891.78;;;12.74;100.00
53480;BME280;56133;51.012;-1.648;2022-07-06T03:24:40;101889.94;;;12.74;100.00
53480;BME280;56133;51.012;-1.648;2022-07-06T03:27:05;101891.88;;;12.72;100.00
53480;BME280;56133;51.012;-1.648;2022-07-06T03:29:31;101878.97;;;12.65;100.00
53480;BME280;56133;51.012;-1.648;2022-07-06T03:31:56;101874.56;;;12.64;100.00
53480;BME280;56133;51.012;-1.648;2022-07-06T03:34:22;101873.56;;;12.65;100.00
53480;BME280;56133;51.012;-1.648;2022-07-06T03:36:47;101878.47;;;12.59;100.00
53480;BME280;56133;51.012;-1.648;2022-07-06T03:39:13;101872.19;;;12.59;100.00
53480;BME280;56133;51.012;-1.648;2022-07-06T03:41:38;101880.00;;;12.51;100.00
53480;BME280;56133;51.012;-1.648;2022-07-06T03:44:04;101866.41;;;12.52;100.00
53480;BME280;56133;51.012;-1.648;2022-07-06T03:46:29;101876.13;;;12.42;100.00
53480;BME280;56133;51.012;-1.648;2022-07-06T03:48:55;101873.03;;;12.35;100.00
53480;BME280;56133;51.012;-1.648;2022-07-06T03:51:20;101880.72;;;12.28;100.00
53480;BME280;56133;51.012;-1.648;2022-07-06T03:53:45;101881.13;;;12.22;100.00
53480;BME280;56133;51.012;-1.648;2022-07-06T03:56:11;101886.75;;;12.19;100.00
53480;BME280;56133;51.012;-1.648;2022-07-06T03:58:59;101888.34;;;12.22;100.00
53480;BME280;56133;51.012;-1.648;2022-07-06T04:01:25;101889.09;;;12.24;100.00
53480;BME280;56133;51.012;-1.648;2022-07-06T04:03:51;101892.88;;;12.21;100.00
53480;BME280;56133;51.012;-1.648;2022-07-06T04:06:17;101882.88;;;12.23;100.00
53480;BME280;56133;51.012;-1.648;2022-07-06T04:08:42;101881.22;;;12.34;100.00
53480;BME280;56133;51.012;-1.648;2022-07-06T04:11:08;101872.56;;;12.41;100.00
53480;BME280;56133;51.012;-1.648;2022-07-06T04:13:33;101876.91;;;12.44;100.00
53480;BME280;56133;51.012;-1.648;2022-07-06T04:15:59;101878.63;;;12.45;100.00
53480;BME280;56133;51.012;-1.648;2022-07-06T04:18:25;101872.25;;;12.46;100.00
53480;BME280;56133;51.012;-1.648;2022-07-06T04:20:50;101867.59;;;12.48;100.00
53480;BME280;56133;51.012;-1.648;2022-07-06T04:23:16;101855.00;;;12.49;100.00
53480;BME280;56133;51.012;-1.648;2022-07-06T04:25:41;101862.94;;;12.50;100.00
53480;BME280;56133;51.012;-1.648;2022-07-06T04:28:07;101854.09;;;12.48;100.00
53480;BME280;56133;51.012;-1.648;2022-07-06T04:30:32;101861.47;;;12.46;100.00
53480;BME280;56133;51.012;-1.648;2022-07-06T04:32:58;101856.09;;;12.46;100.00
53480;BME280;56133;51.012;-1.648;2022-07-06T04:35:24;101865.16;;;12.45;100.00
53480;BME280;56133;51.012;-1.648;2022-07-06T04:37:49;101875.38;;;12.40;100.00
53480;BME280;56133;51.012;-1.648;2022-07-06T04:40:15;101877.75;;;12.44;100.00
53480;BME280;56133;51.012;-1.648;2022-07-06T04:42:40;101887.91;;;12.41;100.00
53480;BME280;56133;51.012;-1.648;2022-07-06T04:45:06;101888.44;;;12.33;100.00
53480;BME280;56133;51.012;-1.648;2022-07-06T04:47:32;101898.06;;;12.24;100.00
53480;BME280;56133;51.012;-1.648;2022-07-06T04:49:58;101900.19;;;12.32;100.00
53480;BME280;56133;51.012;-1.648;2022-07-06T04:52:23;101902.25;;;12.28;100.00
53480;BME280;56133;51.012;-1.648;2022-07-06T04:54:49;101904.50;;;12.35;100.00
53480;BME280;56133;51.012;-1.648;2022-07-06T04:57:14;101911.06;;;12.43;100.00
53480;BME280;56133;51.012;-1.648;2022-07-06T04:59:40;101906.28;;;12.47;100.00
53480;BME280;56133;51.012;-1.648;2022-07-06T05:02:05;101898.47;;;12.44;100.00
53480;BME280;56133;51.012;-1.648;2022-07-06T05:04:31;101897.91;;;12.52;100.00
53480;BME280;56133;51.012;-1.648;2022-07-06T05:06:56;101903.09;;;12.42;100.00
53480;BME280;56133;51.012;-1.648;2022-07-06T05:09:22;101899.44;;;12.43;100.00
53480;BME280;56133;51.012;-1.648;2022-07-06T05:11:47;101906.00;;;12.39;100.00
53480;BME280;56133;51.012;-1.648;2022-07-06T05:14:13;101902.69;;;12.35;100.00
53480;BME280;56133;51.012;-1.648;2022-07-06T05:16:38;101908.69;;;12.52;100.00
53480;BME280;56133;51.012;-1.648;2022-07-06T05:19:04;101903.47;;;12.62;100.00
53480;BME280;56133;51.012;-1.648;2022-07-06T05:21:29;101897.16;;;12.74;100.00
53480;BME280;56133;51.012;-1.648;2022-07-06T05:23:55;101887.31;;;12.86;100.00
53480;BME280;56133;51.012;-1.648;2022-07-06T05:26:20;101894.31;;;12.88;100.00
53480;BME280;56133;51.012;-1.648;2022-07-06T05:28:46;101886.50;;;12.97;100.00
53480;BME280;56133;51.012;-1.648;2022-07-06T05:31:11;101891.66;;;13.00;100.00
53480;BME280;56133;51.012;-1.648;2022-07-06T05:33:37;101892.56;;;13.12;100.00
53480;BME280;56133;51.012;-1.648;2022-07-06T05:36:03;101887.91;;;13.14;100.00
53480;BME280;56133;51.012;-1.648;2022-07-06T05:38:29;101894.22;;;13.26;100.00
53480;BME280;56133;51.012;-1.648;2022-07-06T05:40:54;101903.06;;;13.28;100.00
53480;BME280;56133;51.012;-1.648;2022-07-06T05:43:19;101908.63;;;13.38;100.00
53480;BME280;56133;51.012;-1.648;2022-07-06T05:45:45;101900.94;;;13.44;100.00
53480;BME280;56133;51.012;-1.648;2022-07-06T05:48:10;101900.34;;;13.52;100.00
53480;BME280;56133;51.012;-1.648;2022-07-06T05:50:54;101902.56;;;13.58;100.00
53480;BME280;56133;51.012;-1.648;2022-07-06T05:53:20;101918.06;;;13.68;100.00
53480;BME280;56133;51.012;-1.648;2022-07-06T05:55:48;101918.44;;;13.86;100.00
53480;BME280;56133;51.012;-1.648;2022-07-06T05:58:14;101914.06;;;13.96;100.00
53480;BME280;56133;51.012;-1.648;2022-07-06T06:00:40;101918.25;;;14.11;100.00
53480;BME280;56133;51.012;-1.648;2022-07-06T06:03:05;101918.72;;;14.28;100.00
53480;BME280;56133;51.012;-1.648;2022-07-06T06:05:31;101919.09;;;14.35;100.00
53480;BME280;56133;51.012;-1.648;2022-07-06T06:07:56;101925.13;;;14.50;100.00
53480;BME280;56133;51.012;-1.648;2022-07-06T06:10:22;101926.22;;;14.70;100.00
53480;BME280;56133;51.012;-1.648;2022-07-06T06:12:48;101924.59;;;14.79;100.00
53480;BME280;56133;51.012;-1.648;2022-07-06T06:15:14;101922.09;;;14.87;100.00
53480;BME280;56133;51.012;-1.648;2022-07-06T06:17:39;101919.53;;;14.85;100.00
53480;BME280;56133;51.012;-1.648;2022-07-06T06:20:08;101923.19;;;14.96;100.00
53480;BME280;56133;51.012;-1.648;2022-07-06T06:25:09;101918.91;;;15.26;100.00
53480;BME280;56133;51.012;-1.648;2022-07-06T06:27:35;101919.66;;;15.49;100.00
53480;BME280;56133;51.012;-1.648;2022-07-06T06:30:00;101925.31;;;15.67;100.00
53480;BME280;56133;51.012;-1.648;2022-07-06T06:32:26;101920.78;;;15.89;100.00
53480;BME280;56133;51.012;-1.648;2022-07-06T06:34:51;101920.59;;;16.02;100.00
53480;BME280;56133;51.012;-1.648;2022-07-06T06:37:16;101921.22;;;16.15;100.00
53480;BME280;56133;51.012;-1.648;2022-07-06T06:39:42;101920.69;;;16.21;100.00
53480;BME280;56133;51.012;-1.648;2022-07-06T06:42:07;101920.56;;;16.33;99.89
53480;BME280;56133;51.012;-1.648;2022-07-06T06:44:33;101915.31;;;16.41;100.00
53480;BME280;56133;51.012;-1.648;2022-07-06T06:46:58;101909.47;;;16.46;97.01
53480;BME280;56133;51.012;-1.648;2022-07-06T06:49:24;101912.81;;;16.69;98.25
53480;BME280;56133;51.012;-1.648;2022-07-06T06:51:49;101911.53;;;16.83;96.64
53480;BME280;56133;51.012;-1.648;2022-07-06T06:54:14;101909.25;;;16.78;95.82
53480;BME280;56133;51.012;-1.648;2022-07-06T06:56:40;101911.75;;;17.01;95.88
53480;BME280;56133;51.012;-1.648;2022-07-06T06:59:05;101914.47;;;17.11;95.99
53480;BME280;56133;51.012;-1.648;2022-07-06T07:01:31;101911.31;;;17.06;96.60
53480;BME280;56133;51.012;-1.648;2022-07-06T07:03:58;101917.47;;;17.18;90.46
53480;BME280;56133;51.012;-1.648;2022-07-06T07:06:23;101922.31;;;17.34;94.88
53480;BME280;56133;51.012;-1.648;2022-07-06T07:08:49;101918.31;;;17.38;94.41
53480;BME280;56133;51.012;-1.648;2022-07-06T07:11:14;101926.47;;;17.57;93.77
53480;BME280;56133;51.012;-1.648;2022-07-06T07:13:40;101924.34;;;17.32;92.30
53480;BME280;56133;51.012;-1.648;2022-07-06T07:16:06;101925.03;;;17.53;92.36
53480;BME280;56133;51.012;-1.648;2022-07-06T07:18:32;101938.22;;;17.19;93.15
53480;BME280;56133;51.012;-1.648;2022-07-06T07:20:57;101936.78;;;17.34;94.25
53480;BME280;56133;51.012;-1.648;2022-07-06T07:23:23;101927.63;;;17.45;91.76
53480;BME280;56133;51.012;-1.648;2022-07-06T07:25:48;101919.56;;;17.73;93.59
53480;BME280;56133;51.012;-1.648;2022-07-06T07:28:14;101914.84;;;18.23;89.33
53480;BME280;56133;51.012;-1.648;2022-07-06T07:30:39;101909.47;;;18.69;87.84
53480;BME280;56133;51.012;-1.648;2022-07-06T07:33:05;101919.16;;;19.17;80.25
53480;BME280;56133;51.012;-1.648;2022-07-06T07:35:31;101930.66;;;19.65;78.79
53480;BME280;56133;51.012;-1.648;2022-07-06T07:37:56;101924.09;;;19.76;76.03
53480;BME280;56133;51.012;-1.648;2022-07-06T07:40:22;101925.06;;;19.31;75.64
53480;BME280;56133;51.012;-1.648;2022-07-06T07:42:47;101927.75;;;19.22;76.75
53480;BME280;56133;51.012;-1.648;2022-07-06T07:45:13;101922.97;;;19.06;78.96
53480;BME280;56133;51.012;-1.648;2022-07-06T07:47:39;101933.75;;;18.52;79.43
53480;BME280;56133;51.012;-1.648;2022-07-06T07:50:05;101937.09;;;18.46;82.12
53480;BME280;56133;51.012;-1.648;2022-07-06T07:52:31;101936.72;;;18.87;79.27
53480;BME280;56133;51.012;-1.648;2022-07-06T07:54:56;101943.22;;;19.22;84.21
53480;BME280;56133;51.012;-1.648;2022-07-06T07:57:22;101923.84;;;19.25;83.10
53480;BME280;56133;51.012;-1.648;2022-07-06T07:59:47;101923.44;;;19.38;77.17
53480;BME280;56133;51.012;-1.648;2022-07-06T08:02:13;101922.34;;;19.49;76.68
53480;BME280;56133;51.012;-1.648;2022-07-06T08:04:38;101915.91;;;19.14;78.04
53480;BME280;56133;51.012;-1.648;2022-07-06T08:07:04;101909.00;;;19.90;79.39
53480;BME280;56133;51.012;-1.648;2022-07-06T08:09:29;101909.72;;;19.92;73.63
53480;BME280;56133;51.012;-1.648;2022-07-06T08:11:55;101908.91;;;20.35;72.97
53480;BME280;56133;51.012;-1.648;2022-07-06T08:14:20;101909.75;;;20.35;75.53
53480;BME280;56133;51.012;-1.648;2022-07-06T08:16:46;101913.41;;;20.09;72.15
53480;BME280;56133;51.012;-1.648;2022-07-06T08:19:11;101908.34;;;19.88;74.63
53480;BME280;56133;51.012;-1.648;2022-07-06T08:21:40;101909.16;;;20.58;73.60
53480;BME280;56133;51.012;-1.648;2022-07-06T08:24:06;101896.81;;;20.37;72.27
53480;BME280;56133;51.012;-1.648;2022-07-06T08:26:31;101891.91;;;21.50;70.28
53480;BME280;56133;51.012;-1.648;2022-07-06T08:28:57;101886.25;;;21.10;68.21
53480;BME280;56133;51.012;-1.648;2022-07-06T08:31:23;101878.56;;;21.47;70.28
53480;BME280;56133;51.012;-1.648;2022-07-06T08:33:48;101867.06;;;21.85;63.62
53480;BME280;56133;51.012;-1.648;2022-07-06T08:36:14;101872.38;;;21.78;64.34
53480;BME280;56133;51.012;-1.648;2022-07-06T08:38:39;101870.81;;;21.92;63.06
53480;BME280;56133;51.012;-1.648;2022-07-06T08:41:05;101880.16;;;22.54;61.95
53480;BME280;56133;51.012;-1.648;2022-07-06T08:43:33;101887.78;;;23.13;59.22
53480;BME280;56133;51.012;-1.648;2022-07-06T08:46:01;101883.81;;;22.69;58.11
53480;BME280;56133;51.012;-1.648;2022-07-06T08:48:27;101878.00;;;21.85;62.98
53480;BME280;56133;51.012;-1.648;2022-07-06T08:50:53;101867.09;;;21.27;63.51
53480;BME280;56133;51.012;-1.648;2022-07-06T08:53:20;101880.94;;;20.92;65.04
53480;BME280;56133;51.012;-1.648;2022-07-06T08:55:47;101871.56;;;21.11;69.53
53480;BME280;56133;51.012;-1.648;2022-07-06T08:58:13;101876.16;;;21.44;66.67
53480;BME280;56133;51.012;-1.648;2022-07-06T09:00:39;101872.06;;;21.64;62.85
53480;BME280;56133;51.012;-1.648;2022-07-06T09:03:05;101874.81;;;21.23;64.25
53480;BME280;56133;51.012;-1.648;2022-07-06T09:05:32;101879.91;;;21.01;64.41
53480;BME280;56133;51.012;-1.648;2022-07-06T09:07:59;101878.19;;;20.84;66.76
53480;BME280;56133;51.012;-1.648;2022-07-06T09:10:25;101876.31;;;20.84;67.60
53480;BME280;56133;51.012;-1.648;2022-07-06T09:12:51;101869.41;;;20.63;66.18
53480;BME280;56133;51.012;-1.648;2022-07-06T09:15:17;101872.31;;;20.62;67.32
53480;BME280;56133;51.012;-1.648;2022-07-06T09:17:43;101866.44;;;21.33;67.55
53480;BME280;56133;51.012;-1.648;2022-07-06T09:20:13;101868.97;;;21.76;63.56
53480;BME280;56133;51.012;-1.648;2022-07-06T09:22:39;101869.00;;;21.26;65.79
53480;BME280;56133;51.012;-1.648;2022-07-06T09:25:07;101861.09;;;21.56;67.12
53480;BME280;56133;51.012;-1.648;2022-07-06T09:27:47;101843.75;;;22.92;65.82
53480;BME280;56133;51.012;-1.648;2022-07-06T09:30:15;101847.97;;;24.09;61.64
53480;BME280;56133;51.012;-1.648;2022-07-06T09:32:44;101845.16;;;23.34;59.42
53480;BME280;56133;51.012;-1.648;2022-07-06T09:35:36;101847.84;;;22.96;58.58
53480;BME280;56133;51.012;-1.648;2022-07-06T09:38:04;101847.28;;;23.24;58.00
53480;BME280;56133;51.012;-1.648;2022-07-06T09:40:31;101842.75;;;23.69;55.70
53480;BME280;56133;51.012;-1.648;2022-07-06T09:43:14;101841.78;;;24.22;54.74
53480;BME280;56133;51.012;-1.648;2022-07-06T09:45:43;101842.53;;;23.71;53.39
53480;BME280;56133;51.012;-1.648;2022-07-06T09:48:14;101843.19;;;23.58;54.74
53480;BME280;56133;51.012;-1.648;2022-07-06T09:50:45;101851.69;;;23.33;53.03
53480;BME280;56133;51.012;-1.648;2022-07-06T09:53:12;101848.03;;;24.52;52.86
53480;BME280;56133;51.012;-1.648;2022-07-06T09:55:43;101850.47;;;24.62;49.84
53480;BME280;56133;51.012;-1.648;2022-07-06T09:58:09;101843.72;;;24.43;51.81
53480;BME280;56133;51.012;-1.648;2022-07-06T10:00:35;101854.78;;;24.13;50.41
53480;BME280;56133;51.012;-1.648;2022-07-06T10:03:00;101853.06;;;23.82;51.96
53480;BME280;56133;51.012;-1.648;2022-07-06T10:05:27;101865.56;;;23.08;53.24
53480;BME280;56133;51.012;-1.648;2022-07-06T10:08:00;101847.84;;;22.72;55.02
53480;BME280;56133;51.012;-1.648;2022-07-06T10:10:27;101855.66;;;22.12;56.60
53480;BME280;56133;51.012;-1.648;2022-07-06T10:12:55;101847.56;;;22.27;57.28
53480;BME280;56133;51.012;-1.648;2022-07-06T10:15:22;101855.06;;;22.65;57.58
53480;BME280;56133;51.012;-1.648;2022-07-06T10:17:50;101856.44;;;22.93;56.58
53480;BME280;56133;51.012;-1.648;2022-07-06T10:20:17;101855.75;;;24.05;53.60
53480;BME280;56133;51.012;-1.648;2022-07-06T10:22:43;101844.75;;;24.57;53.03
53480;BME280;56133;51.012;-1.648;2022-07-06T10:25:09;101847.38;;;23.84;50.65
53480;BME280;56133;51.012;-1.648;2022-07-06T10:27:36;101842.56;;;22.39;54.90
53480;BME280;56133;51.012;-1.648;2022-07-06T10:30:02;101839.81;;;22.71;56.33
53480;BME280;56133;51.012;-1.648;2022-07-06T10:32:28;101846.97;;;22.49;57.44
53480;BME280;56133;51.012;-1.648;2022-07-06T10:34:54;101843.81;;;22.28;58.72
53480;BME280;56133;51.012;-1.648;2022-07-06T10:37:27;101840.81;;;22.47;59.98
53480;BME280;56133;51.012;-1.648;2022-07-06T10:39:53;101845.66;;;22.68;56.88
53480;BME280;56133;51.012;-1.648;2022-07-06T10:42:55;101846.81;;;22.73;56.18
53480;BME280;56133;51.012;-1.648;2022-07-06T10:50:49;101832.94;;;23.22;56.24
53480;BME280;56133;51.012;-1.648;2022-07-06T10:53:25;101836.75;;;23.12;55.45
53480;BME280;56133;51.012;-1.648;2022-07-06T10:55:53;101829.13;;;22.99;55.60
53480;BME280;56133;51.012;-1.648;2022-07-06T11:00:59;101833.41;;;23.02;56.89
53480;BME280;56133;51.012;-1.648;2022-07-06T11:06:15;101837.44;;;23.83;56.14
53480;BME280;56133;51.012;-1.648;2022-07-06T11:08:44;101836.09;;;24.23;53.41
53480;BME280;56133;51.012;-1.648;2022-07-06T11:11:12;101823.09;;;25.12;52.99
53480;BME280;56133;51.012;-1.648;2022-07-06T11:13:48;101830.88;;;24.29;52.38
53480;BME280;56133;51.012;-1.648;2022-07-06T11:16:15;101834.91;;;23.81;56.71
53480;BME280;56133;51.012;-1.648;2022-07-06T11:18:45;101835.38;;;22.70;57.47
53480;BME280;56133;51.012;-1.648;2022-07-06T11:21:22;101838.69;;;22.88;58.12
53480;BME280;56133;51.012;-1.648;2022-07-06T11:23:50;101833.09;;;22.50;60.10
53480;BME280;56133;51.012;-1.648;2022-07-06T11:26:17;101833.34;;;22.32;61.30
53480;BME280;56133;51.012;-1.648;2022-07-06T11:28:46;101823.19;;;22.49;62.89
53480;BME280;56133;51.012;-1.648;2022-07-06T11:31:13;101832.53;;;22.86;62.15
53480;BME280;56133;51.012;-1.648;2022-07-06T11:33:39;101826.38;;;22.61;59.29
53480;BME280;56133;51.012;-1.648;2022-07-06T11:38:37;101812.84;;;22.28;63.05
53480;BME280;56133;51.012;-1.648;2022-07-06T11:41:03;101807.84;;;22.32;63.02
53480;BME280;56133;51.012;-1.648;2022-07-06T11:43:28;101816.03;;;22.08;62.18
53480;BME280;56133;51.012;-1.648;2022-07-06T11:45:53;101815.34;;;22.46;61.49
53480;BME280;56133;51.012;-1.648;2022-07-06T11:48:19;101812.25;;;22.41;63.90
53480;BME280;56133;51.012;-1.648;2022-07-06T11:51:03;101811.28;;;22.34;62.83
53480;BME280;56133;51.012;-1.648;2022-07-06T11:53:29;101807.91;;;22.78;62.67
53480;BME280;56133;51.012;-1.648;2022-07-06T11:55:55;101811.44;;;22.87;62.48
53480;BME280;56133;51.012;-1.648;2022-07-06T11:58:22;101815.19;;;23.09;61.75
53480;BME280;56133;51.012;-1.648;2022-07-06T12:01:07;101808.19;;;23.07;61.34
53480;BME280;56133;51.012;-1.648;2022-07-06T12:03:33;101803.75;;;23.44;60.79
53480;BME280;56133;51.012;-1.648;2022-07-06T12:06:04;101812.19;;;23.72;56.55
53480;BME280;56133;51.012;-1.648;2022-07-06T12:08:30;101808.88;;;23.09;58.85
53480;BME280;56133;51.012;-1.648;2022-07-06T12:10:55;101809.44;;;24.02;55.34
53480;BME280;56133;51.012;-1.648;2022-07-06T12:13:22;101801.94;;;23.96;54.85
53480;BME280;56133;51.012;-1.648;2022-07-06T12:15:48;101809.25;;;23.74;56.86
53480;BME280;56133;51.012;-1.648;2022-07-06T12:18:13;101805.75;;;23.12;57.55
53480;BME280;56133;51.012;-1.648;2022-07-06T12:20:39;101807.97;;;22.93;60.05
53480;BME280;56133;51.012;-1.648;2022-07-06T12:23:05;101808.03;;;22.62;59.58
53480;BME280;56133;51.012;-1.648;2022-07-06T12:25:35;101806.16;;;22.85;59.28
53480;BME280;56133;51.012;-1.648;2022-07-06T12:28:01;101806.03;;;22.79;59.71
53480;BME280;56133;51.012;-1.648;2022-07-06T12:30:26;101802.91;;;22.82;59.29
53480;BME280;56133;51.012;-1.648;2022-07-06T12:33:14;101809.44;;;23.19;59.26
53480;BME280;56133;51.012;-1.648;2022-07-06T12:35:41;101799.81;;;24.65;54.95
53480;BME280;56133;51.012;-1.648;2022-07-06T12:38:07;101792.78;;;24.62;52.94
53480;BME280;56133;51.012;-1.648;2022-07-06T12:40:32;101785.28;;;24.49;52.91
53480;BME280;56133;51.012;-1.648;2022-07-06T12:42:58;101785.06;;;24.51;52.47
53480;BME280;56133;51.012;-1.648;2022-07-06T12:45:27;101779.44;;;25.03;49.75
53480;BME280;56133;51.012;-1.648;2022-07-06T12:48:01;101784.75;;;24.61;51.67
53480;BME280;56133;51.012;-1.648;2022-07-06T12:50:46;101785.47;;;24.48;53.97